KGWO/GWO METAR and TAF weather

Enter ICAO airport designator
Station Type Date Time Source
KGWO METAR 2020/01/29 02:53 UTC NOAA

KGWO 290253Z AUTO 30004KT 8SM -RA OVC060 12/09 A3001 RMK AO2 RAB43 SLP162 P0000 60000 T01170089 53014


Station Type Date Time Source
KGWO Decoded METAR 2020/01/29 02:53 UTC NOAA

GREENWOOD-LEFLORE AIRPORT, MS, United States (KGWO) 33-30N 090-05W 44M
Jan 28, 2020 - 09:53 PM EST / 2020.01.29 0253 UTC
Wind: from the WNW (300 degrees) at 5 MPH (4 KT):0
Visibility: 8 mile(s):0
Sky conditions: overcast
Weather: light rain
Precipitation last hour: A trace
Temperature: 53.1 F (11.7 C)
Dew Point: 48.0 F (8.9 C)
Relative Humidity: 82%
Pressure (altimeter): 30.01 in. Hg (1016 hPa)
Pressure tendency: 0.04 inches (1.4 hPa) higher than three hours ago
ob: KGWO 290253Z AUTO 30004KT 8SM -RA OVC060 12/09 A3001 RMK AO2 RAB43 SLP162 P0000 60000 T01170089 53014
cycle: 3

Station Type Date Time Source
KGWO TAF 2020/01/28 18:45 UTC NOAA

TAF KGWO 281741Z 2818/2918 08005KT P6SM SKC
FM282000 VRB03KT P6SM OVC100
FM290200 06005KT P6SM VCSH OVC070
FM290800 06005KT 6SM -SHRA BR BKN060 OVC080
FM291500 07010KT 4SM -RA BR OVC015

Example: see airport list